sensor_id;sensor_type;location;lat;lon;timestamp;pressure;altitude;pressure_sealevel;temperature;humidity
37202;BME280;37799;52.390;6.136;2023-01-26T00:00:52;102502.50;;;-0.80;100.00
37202;BME280;37799;52.390;6.136;2023-01-26T00:03:18;102507.38;;;-1.02;100.00
37202;BME280;37799;52.390;6.136;2023-01-26T00:05:43;102496.41;;;-1.01;100.00
37202;BME280;37799;52.390;6.136;2023-01-26T00:08:09;102498.75;;;-0.88;100.00
37202;BME280;37799;52.390;6.136;2023-01-26T00:10:36;102495.25;;;-0.90;100.00
37202;BME280;37799;52.390;6.136;2023-01-26T00:13:05;102484.50;;;-1.02;100.00
37202;BME280;37799;52.390;6.136;2023-01-26T00:15:31;102489.72;;;-0.99;100.00
37202;BME280;37799;52.390;6.136;2023-01-26T00:17:57;102490.19;;;-0.90;100.00
37202;BME280;37799;52.390;6.136;2023-01-26T00:20:23;102490.31;;;-0.87;100.00
37202;BME280;37799;52.390;6.136;2023-01-26T00:22:48;102486.19;;;-0.66;100.00
37202;BME280;37799;52.390;6.136;2023-01-26T00:25:13;102476.75;;;-0.50;100.00
37202;BME280;37799;52.390;6.136;2023-01-26T00:27:39;102472.66;;;-0.84;100.00
37202;BME280;37799;52.390;6.136;2023-01-26T00:30:04;102475.44;;;-0.60;100.00
37202;BME280;37799;52.390;6.136;2023-01-26T00:32:30;102476.44;;;-0.76;100.00
37202;BME280;37799;52.390;6.136;2023-01-26T00:34:55;102479.84;;;-0.75;100.00
37202;BME280;37799;52.390;6.136;2023-01-26T00:37:20;102477.00;;;-0.64;100.00
37202;BME280;37799;52.390;6.136;2023-01-26T00:39:46;102467.88;;;-0.78;100.00
37202;BME280;37799;52.390;6.136;2023-01-26T00:42:11;102472.72;;;-0.65;100.00
37202;BME280;37799;52.390;6.136;2023-01-26T00:44:41;102472.28;;;-0.74;100.00
37202;BME280;37799;52.390;6.136;2023-01-26T00:47:08;102477.88;;;-0.63;100.00
37202;BME280;37799;52.390;6.136;2023-01-26T00:49:34;102471.97;;;-0.62;100.00
37202;BME280;37799;52.390;6.136;2023-01-26T00:52:00;102467.75;;;-0.62;100.00
37202;BME280;37799;52.390;6.136;2023-01-26T00:54:26;102468.19;;;-0.70;100.00
37202;BME280;37799;52.390;6.136;2023-01-26T00:56:52;102461.00;;;-0.79;100.00
37202;BME280;37799;52.390;6.136;2023-01-26T00:59:17;102458.56;;;-0.95;100.00
37202;BME280;37799;52.390;6.136;2023-01-26T01:01:43;102464.88;;;-0.87;100.00
37202;BME280;37799;52.390;6.136;2023-01-26T01:04:08;102460.72;;;-0.85;100.00
37202;BME280;37799;52.390;6.136;2023-01-26T01:06:34;102448.84;;;-0.67;100.00
37202;BME280;37799;52.390;6.136;2023-01-26T01:08:59;102448.09;;;-0.46;100.00
37202;BME280;37799;52.390;6.136;2023-01-26T01:11:24;102445.00;;;-0.39;100.00
37202;BME280;37799;52.390;6.136;2023-01-26T01:13:50;102446.75;;;-0.38;100.00
37202;BME280;37799;52.390;6.136;2023-01-26T01:16:16;102456.09;;;-0.56;100.00
37202;BME280;37799;52.390;6.136;2023-01-26T01:18:42;102456.34;;;-0.70;100.00
37202;BME280;37799;52.390;6.136;2023-01-26T01:21:13;102452.25;;;-0.66;100.00
37202;BME280;37799;52.390;6.136;2023-01-26T01:23:39;102450.75;;;-0.63;100.00
37202;BME280;37799;52.390;6.136;2023-01-26T01:26:05;102447.72;;;-0.73;100.00
37202;BME280;37799;52.390;6.136;2023-01-26T01:28:32;102440.41;;;-0.66;100.00
37202;BME280;37799;52.390;6.136;2023-01-26T01:30:58;102459.31;;;-0.61;100.00
37202;BME280;37799;52.390;6.136;2023-01-26T01:33:23;102447.16;;;-0.66;100.00
37202;BME280;37799;52.390;6.136;2023-01-26T01:36:00;102441.56;;;-0.59;100.00
37202;BME280;37799;52.390;6.136;2023-01-26T01:38:26;102440.56;;;-0.63;100.00
37202;BME280;37799;52.390;6.136;2023-01-26T01:40:52;102439.59;;;-0.47;100.00
37202;BME280;37799;52.390;6.136;2023-01-26T01:43:18;102445.72;;;-0.61;100.00
37202;BME280;37799;52.390;6.136;2023-01-26T01:45:45;102447.09;;;-0.50;100.00
37202;BME280;37799;52.390;6.136;2023-01-26T01:48:33;102440.72;;;-0.60;100.00
37202;BME280;37799;52.390;6.136;2023-01-26T01:51:04;102436.28;;;-0.64;100.00
37202;BME280;37799;52.390;6.136;2023-01-26T01:53:33;102437.53;;;-0.36;100.00
37202;BME280;37799;52.390;6.136;2023-01-26T01:56:04;102438.03;;;-0.43;100.00
37202;BME280;37799;52.390;6.136;2023-01-26T01:58:34;102439.44;;;-0.50;100.00
37202;BME280;37799;52.390;6.136;2023-01-26T02:01:01;102429.47;;;-0.45;100.00
37202;BME280;37799;52.390;6.136;2023-01-26T02:03:27;102448.09;;;-0.46;100.00
37202;BME280;37799;52.390;6.136;2023-01-26T02:06:00;102444.19;;;-0.57;100.00
37202;BME280;37799;52.390;6.136;2023-01-26T02:08:38;102440.25;;;-0.51;100.00
37202;BME280;37799;52.390;6.136;2023-01-26T02:11:08;102449.81;;;-0.45;100.00
37202;BME280;37799;52.390;6.136;2023-01-26T02:13:35;102441.06;;;-0.33;100.00
37202;BME280;37799;52.390;6.136;2023-01-26T02:16:00;102437.09;;;-0.45;100.00
37202;BME280;37799;52.390;6.136;2023-01-26T02:18:26;102430.47;;;-0.42;100.00
37202;BME280;37799;52.390;6.136;2023-01-26T02:20:56;102430.41;;;-0.43;100.00
37202;BME280;37799;52.390;6.136;2023-01-26T02:23:34;102436.09;;;-0.49;100.00
37202;BME280;37799;52.390;6.136;2023-01-26T02:26:13;102434.63;;;-0.44;100.00
37202;BME280;37799;52.390;6.136;2023-01-26T02:28:40;102423.44;;;-0.47;100.00
37202;BME280;37799;52.390;6.136;2023-01-26T02:31:07;102429.69;;;-0.21;100.00
37202;BME280;37799;52.390;6.136;2023-01-26T02:33:33;102426.31;;;-0.20;100.00
37202;BME280;37799;52.390;6.136;2023-01-26T02:35:59;102431.06;;;-0.09;100.00
37202;BME280;37799;52.390;6.136;2023-01-26T02:38:35;102432.50;;;-0.35;100.00
37202;BME280;37799;52.390;6.136;2023-01-26T02:41:06;102433.75;;;-0.44;100.00
37202;BME280;37799;52.390;6.136;2023-01-26T02:43:32;102434.16;;;-0.35;100.00
37202;BME280;37799;52.390;6.136;2023-01-26T02:45:57;102430.00;;;-0.33;100.00
37202;BME280;37799;52.390;6.136;2023-01-26T02:48:23;102439.78;;;-0.42;100.00
37202;BME280;37799;52.390;6.136;2023-01-26T02:51:08;102443.81;;;-0.47;100.00
37202;BME280;37799;52.390;6.136;2023-01-26T02:53:33;102437.09;;;-0.45;100.00
37202;BME280;37799;52.390;6.136;2023-01-26T02:55:59;102439.28;;;-0.53;100.00
37202;BME280;37799;52.390;6.136;2023-01-26T02:58:24;102438.03;;;-0.43;100.00
37202;BME280;37799;52.390;6.136;2023-01-26T03:00:49;102438.03;;;-0.43;100.00
37202;BME280;37799;52.390;6.136;2023-01-26T03:03:26;102438.97;;;-0.41;100.00
37202;BME280;37799;52.390;6.136;2023-01-26T03:06:06;102434.41;;;-0.29;100.00
37202;BME280;37799;52.390;6.136;2023-01-26T03:08:32;102430.63;;;-0.39;100.00
37202;BME280;37799;52.390;6.136;2023-01-26T03:10:57;102433.94;;;-0.40;100.00
37202;BME280;37799;52.390;6.136;2023-01-26T03:13:22;102431.66;;;-0.14;100.00
37202;BME280;37799;52.390;6.136;2023-01-26T03:15:48;102426.38;;;0.01;100.00
37202;BME280;37799;52.390;6.136;2023-01-26T03:18:20;102431.59;;;-0.16;100.00
37202;BME280;37799;52.390;6.136;2023-01-26T03:21:15;102426.13;;;-0.25;100.00
37202;BME280;37799;52.390;6.136;2023-01-26T03:24:00;102440.00;;;-0.38;100.00
37202;BME280;37799;52.390;6.136;2023-01-26T03:26:44;102433.16;;;-0.19;100.00
37202;BME280;37799;52.390;6.136;2023-01-26T03:29:29;102430.34;;;-0.06;100.00
37202;BME280;37799;52.390;6.136;2023-01-26T03:31:55;102421.88;;;0.14;100.00
37202;BME280;37799;52.390;6.136;2023-01-26T03:34:20;102432.22;;;-0.21;100.00
37202;BME280;37799;52.390;6.136;2023-01-26T03:36:47;102433.09;;;-0.21;100.00
37202;BME280;37799;52.390;6.136;2023-01-26T03:39:12;102437.91;;;-0.08;100.00
37202;BME280;37799;52.390;6.136;2023-01-26T03:41:58;102427.84;;;-0.05;100.00
37202;BME280;37799;52.390;6.136;2023-01-26T03:44:42;102426.13;;;-0.25;100.00
37202;BME280;37799;52.390;6.136;2023-01-26T03:47:25;102438.88;;;-0.25;100.00
37202;BME280;37799;52.390;6.136;2023-01-26T03:50:10;102436.97;;;-0.29;100.00
37202;BME280;37799;52.390;6.136;2023-01-26T03:52:54;102433.63;;;-0.28;100.00
37202;BME280;37799;52.390;6.136;2023-01-26T03:55:38;102439.66;;;-0.26;100.00
37202;BME280;37799;52.390;6.136;2023-01-26T03:58:22;102429.06;;;-0.16;100.00
37202;BME280;37799;52.390;6.136;2023-01-26T04:00:50;102435.75;;;-0.18;100.00
37202;BME280;37799;52.390;6.136;2023-01-26T04:03:15;102431.47;;;-0.19;100.00
37202;BME280;37799;52.390;6.136;2023-01-26T04:05:59;102432.19;;;-0.02;100.00
37202;BME280;37799;52.390;6.136;2023-01-26T04:08:45;102423.56;;;-0.06;100.00
37202;BME280;37799;52.390;6.136;2023-01-26T04:11:11;102426.78;;;-0.10;100.00
37202;BME280;37799;52.390;6.136;2023-01-26T04:13:37;102423.22;;;-0.13;100.00
37202;BME280;37799;52.390;6.136;2023-01-26T04:16:21;102432.47;;;-0.15;100.00
37202;BME280;37799;52.390;6.136;2023-01-26T04:19:05;102434.44;;;-0.10;100.00
37202;BME280;37799;52.390;6.136;2023-01-26T04:21:49;102424.78;;;-0.17;100.00
37202;BME280;37799;52.390;6.136;2023-01-26T04:24:14;102418.34;;;-0.09;100.00
37202;BME280;37799;52.390;6.136;2023-01-26T04:26:41;102423.97;;;-0.16;100.00
37202;BME280;37799;52.390;6.136;2023-01-26T04:29:09;102424.63;;;-0.01;100.00
37202;BME280;37799;52.390;6.136;2023-01-26T04:31:35;102425.91;;;0.30;100.00
37202;BME280;37799;52.390;6.136;2023-01-26T04:34:02;102425.06;;;0.10;100.00
37202;BME280;37799;52.390;6.136;2023-01-26T04:36:28;102419.16;;;-0.10;100.00
37202;BME280;37799;52.390;6.136;2023-01-26T04:38:54;102420.63;;;-0.15;100.00
37202;BME280;37799;52.390;6.136;2023-01-26T04:41:19;102417.66;;;-0.05;100.00
37202;BME280;37799;52.390;6.136;2023-01-26T04:43:45;102417.66;;;-0.05;100.00
37202;BME280;37799;52.390;6.136;2023-01-26T04:46:10;102410.31;;;0.02;100.00
37202;BME280;37799;52.390;6.136;2023-01-26T04:48:36;102408.56;;;0.01;100.00
37202;BME280;37799;52.390;6.136;2023-01-26T04:51:04;102406.66;;;-0.04;100.00
37202;BME280;37799;52.390;6.136;2023-01-26T04:53:33;102406.16;;;-0.16;100.00
37202;BME280;37799;52.390;6.136;2023-01-26T04:55:58;102396.41;;;-0.05;100.00
37202;BME280;37799;52.390;6.136;2023-01-26T04:58:24;102402.66;;;0.02;100.00
37202;BME280;37799;52.390;6.136;2023-01-26T05:00:51;102404.00;;;-0.07;100.00
37202;BME280;37799;52.390;6.136;2023-01-26T05:03:17;102407.22;;;-0.11;100.00
37202;BME280;37799;52.390;6.136;2023-01-26T05:05:42;102412.31;;;-0.11;100.00
37202;BME280;37799;52.390;6.136;2023-01-26T05:08:07;102396.31;;;-0.08;100.00
37202;BME280;37799;52.390;6.136;2023-01-26T05:10:33;102399.09;;;-0.02;100.00
37202;BME280;37799;52.390;6.136;2023-01-26T05:12:58;102392.94;;;-0.07;100.00
37202;BME280;37799;52.390;6.136;2023-01-26T05:15:24;102395.56;;;-0.06;100.00
37202;BME280;37799;52.390;6.136;2023-01-26T05:17:49;102395.56;;;-0.06;100.00
37202;BME280;37799;52.390;6.136;2023-01-26T05:20:15;102390.47;;;-0.06;100.00
37202;BME280;37799;52.390;6.136;2023-01-26T05:22:41;102392.31;;;-0.02;100.00
37202;BME280;37799;52.390;6.136;2023-01-26T05:25:06;102393.69;;;-0.10;100.00
37202;BME280;37799;52.390;6.136;2023-01-26T05:27:32;102388.75;;;0.14;100.00
37202;BME280;37799;52.390;6.136;2023-01-26T05:29:57;102387.88;;;0.14;100.00
37202;BME280;37799;52.390;6.136;2023-01-26T05:32:25;102385.81;;;0.05;100.00
37202;BME280;37799;52.390;6.136;2023-01-26T05:34:51;102397.81;;;0.08;100.00
37202;BME280;37799;52.390;6.136;2023-01-26T05:37:17;102384.16;;;0.06;100.00
37202;BME280;37799;52.390;6.136;2023-01-26T05:39:42;102399.97;;;-0.02;100.00
37202;BME280;37799;52.390;6.136;2023-01-26T05:42:09;102408.69;;;0.04;100.00
37202;BME280;37799;52.390;6.136;2023-01-26T05:44:35;102400.81;;;0.18;100.00
37202;BME280;37799;52.390;6.136;2023-01-26T05:47:00;102398.25;;;0.18;100.00
37202;BME280;37799;52.390;6.136;2023-01-26T05:49:25;102398.69;;;0.08;100.00
37202;BME280;37799;52.390;6.136;2023-01-26T05:51:50;102407.06;;;0.06;100.00
37202;BME280;37799;52.390;6.136;2023-01-26T05:54:16;102400.28;;;0.06;100.00
37202;BME280;37799;52.390;6.136;2023-01-26T05:56:41;102403.66;;;0.05;100.00
37202;BME280;37799;52.390;6.136;2023-01-26T05:59:06;102400.63;;;0.14;100.00
37202;BME280;37799;52.390;6.136;2023-01-26T06:01:32;102405.16;;;0.21;100.00
37202;BME280;37799;52.390;6.136;2023-01-26T06:03:57;102403.09;;;0.12;100.00
37202;BME280;37799;52.390;6.136;2023-01-26T06:06:22;102405.31;;;0.05;100.00
37202;BME280;37799;52.390;6.136;2023-01-26T06:08:48;102407.47;;;-0.05;100.00
37202;BME280;37799;52.390;6.136;2023-01-26T06:11:13;102404.53;;;0.06;100.00
37202;BME280;37799;52.390;6.136;2023-01-26T06:13:38;102409.84;;;0.12;100.00
37202;BME280;37799;52.390;6.136;2023-01-26T06:16:04;102409.13;;;0.14;100.00
37202;BME280;37799;52.390;6.136;2023-01-26T06:18:29;102419.44;;;0.17;100.00
37202;BME280;37799;52.390;6.136;2023-01-26T06:20:58;102420.44;;;0.21;100.00
37202;BME280;37799;52.390;6.136;2023-01-26T06:23:25;102413.59;;;0.20;100.00
37202;BME280;37799;52.390;6.136;2023-01-26T06:25:50;102419.44;;;0.17;100.00
37202;BME280;37799;52.390;6.136;2023-01-26T06:28:16;102414.53;;;0.22;100.00
37202;BME280;37799;52.390;6.136;2023-01-26T06:30:43;102417.34;;;0.28;100.00
37202;BME280;37799;52.390;6.136;2023-01-26T06:33:08;102415.47;;;0.24;100.00
37202;BME280;37799;52.390;6.136;2023-01-26T06:35:34;102429.13;;;0.26;100.00
37202;BME280;37799;52.390;6.136;2023-01-26T06:38:00;102427.66;;;0.31;100.00
37202;BME280;37799;52.390;6.136;2023-01-26T06:40:25;102429.41;;;0.32;100.00
37202;BME280;37799;52.390;6.136;2023-01-26T06:42:51;102429.06;;;0.24;100.00
37202;BME280;37799;52.390;6.136;2023-01-26T06:45:17;102429.00;;;0.23;100.00
37202;BME280;37799;52.390;6.136;2023-01-26T06:47:49;102427.38;;;0.25;100.00
37202;BME280;37799;52.390;6.136;2023-01-26T06:50:19;102433.50;;;0.28;100.00
37202;BME280;37799;52.390;6.136;2023-01-26T06:52:51;102441.09;;;0.27;100.00
37202;BME280;37799;52.390;6.136;2023-01-26T06:55:29;102441.97;;;0.27;100.00
37202;BME280;37799;52.390;6.136;2023-01-26T06:57:56;102442.03;;;0.29;100.00
37202;BME280;37799;52.390;6.136;2023-01-26T07:00:21;102438.25;;;0.40;100.00
37202;BME280;37799;52.390;6.136;2023-01-26T07:02:47;102441.22;;;0.30;100.00
37202;BME280;37799;52.390;6.136;2023-01-26T07:05:12;102437.41;;;0.20;100.00
37202;BME280;37799;52.390;6.136;2023-01-26T07:07:37;102438.44;;;0.25;100.00
37202;BME280;37799;52.390;6.136;2023-01-26T07:10:03;102437.66;;;0.26;100.00
37202;BME280;37799;52.390;6.136;2023-01-26T07:12:41;102441.00;;;0.25;100.00
37202;BME280;37799;52.390;6.136;2023-01-26T07:15:07;102443.34;;;0.40;100.00
37202;BME280;37799;52.390;6.136;2023-01-26T07:17:33;102443.53;;;0.25;100.00
37202;BME280;37799;52.390;6.136;2023-01-26T07:19:58;102446.41;;;0.33;100.00
37202;BME280;37799;52.390;6.136;2023-01-26T07:22:23;102444.38;;;0.45;100.00
37202;BME280;37799;52.390;6.136;2023-01-26T07:24:49;102451.13;;;0.24;100.00
37202;BME280;37799;52.390;6.136;2023-01-26T07:27:14;102444.91;;;0.38;100.00
37202;BME280;37799;52.390;6.136;2023-01-26T07:29:39;102458.84;;;0.25;100.00
37202;BME280;37799;52.390;6.136;2023-01-26T07:32:04;102460.19;;;0.17;100.00
37202;BME280;37799;52.390;6.136;2023-01-26T07:34:30;102468.59;;;0.15;100.00
37202;BME280;37799;52.390;6.136;2023-01-26T07:36:55;102471.19;;;0.16;100.00
37202;BME280;37799;52.390;6.136;2023-01-26T07:39:21;102466.28;;;0.21;100.00
37202;BME280;37799;52.390;6.136;2023-01-26T07:41:48;102462.00;;;0.20;100.00
37202;BME280;37799;52.390;6.136;2023-01-26T07:44:13;102467.91;;;0.19;100.00
37202;BME280;37799;52.390;6.136;2023-01-26T07:46:38;102473.75;;;0.16;100.00
37202;BME280;37799;52.390;6.136;2023-01-26T07:49:05;102462.88;;;0.20;100.00
37202;BME280;37799;52.390;6.136;2023-01-26T07:51:30;102467.16;;;0.21;100.00
37202;BME280;37799;52.390;6.136;2023-01-26T07:53:56;102471.09;;;0.34;100.00
37202;BME280;37799;52.390;6.136;2023-01-26T07:56:23;102481.16;;;0.31;100.00
37202;BME280;37799;52.390;6.136;2023-01-26T07:58:52;102481.97;;;0.30;100.00
37202;BME280;37799;52.390;6.136;2023-01-26T08:01:18;102478.50;;;0.28;100.00
37202;BME280;37799;52.390;6.136;2023-01-26T08:03:43;102481.69;;;0.24;100.00
37202;BME280;37799;52.390;6.136;2023-01-26T08:06:10;102481.69;;;0.24;100.00
37202;BME280;37799;52.390;6.136;2023-01-26T08:08:35;102481.09;;;0.29;100.00
37202;BME280;37799;52.390;6.136;2023-01-26T08:11:01;102478.63;;;0.31;100.00
37202;BME280;37799;52.390;6.136;2023-01-26T08:13:28;102481.22;;;0.33;100.00
37202;BME280;37799;52.390;6.136;2023-01-26T08:15:53;102477.06;;;0.35;100.00
37202;BME280;37799;52.390;6.136;2023-01-26T08:18:19;102476.19;;;0.34;100.00
37202;BME280;37799;52.390;6.136;2023-01-26T08:20:52;102481.69;;;0.43;100.00
37202;BME280;37799;52.390;6.136;2023-01-26T08:23:17;102480.13;;;0.47;100.00
37202;BME280;37799;52.390;6.136;2023-01-26T08:25:43;102479.38;;;0.49;100.00
37202;BME280;37799;52.390;6.136;2023-01-26T08:28:08;102475.94;;;0.49;100.00
37202;BME280;37799;52.390;6.136;2023-01-26T08:30:34;102469.31;;;0.52;100.00
37202;BME280;37799;52.390;6.136;2023-01-26T08:33:01;102472.53;;;0.48;100.00
37202;BME280;37799;52.390;6.136;2023-01-26T08:35:26;102480.38;;;0.53;100.00
37202;BME280;37799;52.390;6.136;2023-01-26T08:37:52;102481.63;;;0.63;100.00
37202;BME280;37799;52.390;6.136;2023-01-26T08:40:17;102475.66;;;0.62;100.00
37202;BME280;37799;52.390;6.136;2023-01-26T08:42:42;102475.59;;;0.61;100.00
37202;BME280;37799;52.390;6.136;2023-01-26T08:45:08;102484.16;;;0.63;100.00
37202;BME280;37799;52.390;6.136;2023-01-26T08:47:33;102473.91;;;0.61;100.00
37202;BME280;37799;52.390;6.136;2023-01-26T08:49:59;102482.81;;;0.71;100.00
37202;BME280;37799;52.390;6.136;2023-01-26T08:52:24;102482.13;;;0.75;100.00
37202;BME280;37799;52.390;6.136;2023-01-26T08:54:49;102479.63;;;0.76;100.00
37202;BME280;37799;52.390;6.136;2023-01-26T08:57:15;102488.94;;;0.76;100.00
37202;BME280;37799;52.390;6.136;2023-01-26T08:59:40;102479.78;;;0.79;100.00
37202;BME280;37799;52.390;6.136;2023-01-26T09:02:08;102495.13;;;0.81;100.00
37202;BME280;37799;52.390;6.136;2023-01-26T09:04:34;102488.34;;;0.81;100.00
37202;BME280;37799;52.390;6.136;2023-01-26T09:06:59;102493.94;;;0.94;100.00
37202;BME280;37799;52.390;6.136;2023-01-26T09:09:25;102494.94;;;0.97;100.00
37202;BME280;37799;52.390;6.136;2023-01-26T09:11:53;102493.19;;;0.96;100.00
37202;BME280;37799;52.390;6.136;2023-01-26T09:14:19;102490.59;;;0.95;100.00
37202;BME280;37799;52.390;6.136;2023-01-26T09:16:44;102506.88;;;0.98;100.00
37202;BME280;37799;52.390;6.136;2023-01-26T09:19:09;102502.59;;;0.97;100.00
37202;BME280;37799;52.390;6.136;2023-01-26T09:21:35;102495.09;;;1.02;100.00
37202;BME280;37799;52.390;6.136;2023-01-26T09:24:00;102494.44;;;1.06;100.00
37202;BME280;37799;52.390;6.136;2023-01-26T09:26:28;102491.25;;;1.11;100.00
37202;BME280;37799;52.390;6.136;2023-01-26T09:28:53;102499.69;;;1.10;100.00
37202;BME280;37799;52.390;6.136;2023-01-26T09:31:19;102493.63;;;1.07;100.00
37202;BME280;37799;52.390;6.136;2023-01-26T09:33:44;102490.06;;;1.03;100.00
37202;BME280;37799;52.390;6.136;2023-01-26T09:36:10;102490.06;;;1.03;100.00
37202;BME280;37799;52.390;6.136;2023-01-26T09:38:36;102494.53;;;1.09;100.00
37202;BME280;37799;52.390;6.136;2023-01-26T09:44:03;102493.50;;;1.26;100.00
37202;BME280;37799;52.390;6.136;2023-01-26T09:47:05;102498.91;;;1.34;100.00
37202;BME280;37799;52.390;6.136;2023-01-26T09:49:47;102504.00;;;1.56;100.00
37202;BME280;37799;52.390;6.136;2023-01-26T09:52:34;102505.53;;;1.73;100.00
37202;BME280;37799;52.390;6.136;2023-01-26T09:55:04;102506.88;;;1.88;100.00
37202;BME280;37799;52.390;6.136;2023-01-26T09:57:37;102501.50;;;2.04;100.00
37202;BME280;37799;52.390;6.136;2023-01-26T10:00:25;102507.97;;;2.18;100.00
37202;BME280;37799;52.390;6.136;2023-01-26T10:06:06;102512.53;;;2.51;100.00
37202;BME280;37799;52.390;6.136;2023-01-26T10:08:35;102517.41;;;2.70;100.00
37202;BME280;37799;52.390;6.136;2023-01-26T10:11:04;102514.63;;;2.88;100.00
37202;BME280;37799;52.390;6.136;2023-01-26T10:13:31;102514.31;;;3.06;100.00
37202;BME280;37799;52.390;6.136;2023-01-26T10:16:02;102521.66;;;3.22;100.00
37202;BME280;37799;52.390;6.136;2023-01-26T10:21:39;102523.41;;;3.51;100.00
37202;BME280;37799;52.390;6.136;2023-01-26T10:24:08;102526.44;;;3.67;100.00
37202;BME280;37799;52.390;6.136;2023-01-26T10:26:34;102523.28;;;3.77;100.00
37202;BME280;37799;52.390;6.136;2023-01-26T10:29:00;102515.31;;;3.96;100.00
37202;BME280;37799;52.390;6.136;2023-01-26T10:31:28;102513.28;;;4.16;100.00
37202;BME280;37799;52.390;6.136;2023-01-26T10:34:12;102509.69;;;4.41;100.00
37202;BME280;37799;52.390;6.136;2023-01-26T10:36:39;102512.91;;;4.67;100.00
37202;BME280;37799;52.390;6.136;2023-01-26T10:39:09;102513.72;;;4.99;100.00
37202;BME280;37799;52.390;6.136;2023-01-26T10:41:35;102505.03;;;5.31;100.00
37202;BME280;37799;52.390;6.136;2023-01-26T10:46:36;102507.00;;;5.84;100.00
37202;BME280;37799;52.390;6.136;2023-01-26T10:49:14;102505.53;;;5.94;100.00
37202;BME280;37799;52.390;6.136;2023-01-26T10:51:42;102502.63;;;6.20;100.00
37202;BME280;37799;52.390;6.136;2023-01-26T10:54:26;102510.03;;;6.50;100.00
37202;BME280;37799;52.390;6.136;2023-01-26T10:56:56;102507.75;;;6.67;100.00
37202;BME280;37799;52.390;6.136;2023-01-26T10:59:51;102506.09;;;6.71;100.00
37202;BME280;37799;52.390;6.136;2023-01-26T11:02:26;102507.84;;;6.73;100.00
37202;BME280;37799;52.390;6.136;2023-01-26T11:07:40;102520.38;;;7.03;100.00
37202;BME280;37799;52.390;6.136;2023-01-26T11:12:43;102523.44;;;7.37;100.00
37202;BME280;37799;52.390;6.136;2023-01-26T11:15:16;102524.63;;;7.62;100.00
37202;BME280;37799;52.390;6.136;2023-01-26T11:17:54;102516.34;;;7.86;100.00
37202;BME280;37799;52.390;6.136;2023-01-26T11:23:19;102518.63;;;7.63;100.00
37202;BME280;37799;52.390;6.136;2023-01-26T11:28:42;102518.88;;;7.81;100.00
37202;BME280;37799;52.390;6.136;2023-01-26T11:34:12;102507.75;;;7.87;100.00
37202;BME280;37799;52.390;6.136;2023-01-26T11:39:27;102514.94;;;8.12;100.00
37202;BME280;37799;52.390;6.136;2023-01-26T11:45:03;102496.13;;;8.22;100.00
37202;BME280;37799;52.390;6.136;2023-01-26T11:50:23;102504.41;;;8.77;100.00
37202;BME280;37799;52.390;6.136;2023-01-26T11:53:15;102500.00;;;8.67;100.00
37202;BME280;37799;52.390;6.136;2023-01-26T11:55:56;102506.03;;;8.68;100.00
37202;BME280;37799;52.390;6.136;2023-01-26T11:58:30;102499.09;;;8.61;100.00
37202;BME280;37799;52.390;6.136;2023-01-26T12:00:58;102497.44;;;8.70;100.00
37202;BME280;37799;52.390;6.136;2023-01-26T12:03:31;102500.75;;;8.55;100.00
37202;BME280;37799;52.390;6.136;2023-01-26T12:06:06;102500.66;;;8.45;100.00
37202;BME280;37799;52.390;6.136;2023-01-26T12:11:08;102490.19;;;8.33;100.00
37202;BME280;37799;52.390;6.136;2023-01-26T12:14:03;102490.97;;;8.25;100.00
37202;BME280;37799;52.390;6.136;2023-01-26T12:16:37;102484.94;;;8.23;100.00
37202;BME280;37799;52.390;6.136;2023-01-26T12:21:37;102473.75;;;8.21;100.00
37202;BME280;37799;52.390;6.136;2023-01-26T12:24:05;102474.94;;;8.55;100.00
37202;BME280;37799;52.390;6.136;2023-01-26T12:26:42;102462.97;;;8.65;100.00
37202;BME280;37799;52.390;6.136;2023-01-26T12:29:27;102472.47;;;8.69;100.00
37202;BME280;37799;52.390;6.136;2023-01-26T12:32:06;102465.56;;;8.64;100.00
37202;BME280;37799;52.390;6.136;2023-01-26T12:34:34;102456.97;;;8.69;100.00
37202;BME280;37799;52.390;6.136;2023-01-26T12:37:11;102457.69;;;8.51;100.00
37202;BME280;37799;52.390;6.136;2023-01-26T12:39:44;102455.03;;;8.41;100.00
37202;BME280;37799;52.390;6.136;2023-01-26T12:44:45;102440.22;;;8.26;100.00
37202;BME280;37799;52.390;6.136;2023-01-26T12:47:15;102438.50;;;8.23;100.00
37202;BME280;37799;52.390;6.136;2023-01-26T12:52:22;102434.84;;;8.03;100.00
37202;BME280;37799;52.390;6.136;2023-01-26T12:54:57;102427.91;;;7.97;100.00
37202;BME280;37799;52.390;6.136;2023-01-26T12:57:37;102429.66;;;8.00;100.00
37202;BME280;37799;52.390;6.136;2023-01-26T13:00:17;102427.19;;;8.12;100.00
37202;BME280;37799;52.390;6.136;2023-01-26T13:02:49;102415.94;;;8.06;100.00
37202;BME280;37799;52.390;6.136;2023-01-26T13:05:28;102418.59;;;8.10;100.00
37202;BME280;37799;52.390;6.136;2023-01-26T13:07:54;102418.75;;;8.32;100.00
37202;BME280;37799;52.390;6.136;2023-01-26T13:10:22;102406.84;;;8.44;100.00
37202;BME280;37799;52.390;6.136;2023-01-26T13:15:25;102413.59;;;8.28;100.00
37202;BME280;37799;52.390;6.136;2023-01-26T13:18:01;102419.44;;;8.09;100.00
37202;BME280;37799;52.390;6.136;2023-01-26T13:26:13;102419.84;;;8.53;100.00
37202;BME280;37799;52.390;6.136;2023-01-26T13:28:39;102412.13;;;8.58;100.00
37202;BME280;37799;52.390;6.136;2023-01-26T13:31:06;102418.25;;;8.71;100.00
37202;BME280;37799;52.390;6.136;2023-01-26T13:33:31;102413.91;;;8.62;100.00
37202;BME280;37799;52.390;6.136;2023-01-26T13:35:58;102417.34;;;8.61;100.00
37202;BME280;37799;52.390;6.136;2023-01-26T13:38:32;102415.63;;;8.66;100.00
37202;BME280;37799;52.390;6.136;2023-01-26T13:41:00;102420.09;;;8.85;100.00
37202;BME280;37799;52.390;6.136;2023-01-26T13:43:39;102422.63;;;8.79;100.00
37202;BME280;37799;52.390;6.136;2023-01-26T13:48:55;102417.00;;;8.24;100.00
37202;BME280;37799;52.390;6.136;2023-01-26T13:51:26;102414.44;;;8.27;100.00